createdAt,value
2018-10-12T00:00:44.250Z,10.30
2018-10-12T00:03:13.830Z,10.30
2018-10-12T00:05:43.352Z,10.30
2018-10-12T00:08:12.434Z,10.20
2018-10-12T00:10:41.581Z,10.20
2018-10-12T00:13:10.609Z,10.20
2018-10-12T00:15:39.471Z,10.20
2018-10-12T00:18:15.892Z,10.30
2018-10-12T00:20:44.822Z,10.30
2018-10-12T00:23:13.674Z,10.40
2018-10-12T00:25:42.615Z,10.50
2018-10-12T00:28:11.567Z,10.60
2018-10-12T00:30:40.460Z,10.60
2018-10-12T00:33:09.384Z,10.60
2018-10-12T00:35:38.307Z,10.60
2018-10-12T00:38:07.288Z,10.60
2018-10-12T00:40:36.264Z,10.60
2018-10-12T00:43:05.146Z,10.60
2018-10-12T00:45:34.063Z,10.50
2018-10-12T00:48:03.023Z,10.40
2018-10-12T00:50:32.811Z,10.40
2018-10-12T00:53:01.852Z,10.30
2018-10-12T00:55:33.669Z,10.20
2018-10-12T00:58:02.582Z,10.20
2018-10-12T01:00:31.603Z,10.20
2018-10-12T01:03:00.632Z,10.20
2018-10-12T01:05:29.523Z,10.30
2018-10-12T01:07:58.500Z,10.40
2018-10-12T01:10:27.470Z,10.50
2018-10-12T01:12:56.416Z,10.60
2018-10-12T01:15:25.487Z,10.70
2018-10-12T01:17:54.469Z,10.70
2018-10-12T01:20:23.448Z,10.70
2018-10-12T01:22:52.291Z,10.60
2018-10-12T01:25:21.202Z,10.60
2018-10-12T01:27:50.090Z,10.60
2018-10-12T01:30:18.966Z,10.60
2018-10-12T01:32:53.152Z,10.80
2018-10-12T01:35:21.964Z,10.70
2018-10-12T01:37:50.809Z,10.60
2018-10-12T01:40:19.687Z,10.60
2018-10-12T01:42:48.693Z,10.80
2018-10-12T01:45:17.546Z,10.90
2018-10-12T01:47:46.438Z,11.00
2018-10-12T01:50:15.311Z,11.00
2018-10-12T01:52:44.175Z,11.10
2018-10-12T01:55:13.149Z,11.10
2018-10-12T01:57:42.033Z,11.00
2018-10-12T02:00:10.870Z,10.80
2018-10-12T02:02:40.073Z,10.70
2018-10-12T02:05:10.939Z,10.60
2018-10-12T02:07:39.787Z,10.40
2018-10-12T02:10:08.788Z,10.30
2018-10-12T02:12:37.615Z,10.20
2018-10-12T02:15:06.600Z,10.10
2018-10-12T02:17:35.492Z,10.00
2018-10-12T02:20:04.426Z,10.00
2018-10-12T02:22:33.287Z,9.90
2018-10-12T02:25:02.103Z,9.90
2018-10-12T02:27:30.972Z,9.80
2018-10-12T02:29:59.886Z,9.80
2018-10-12T02:32:28.749Z,9.70
2018-10-12T02:34:57.584Z,9.70
2018-10-12T02:37:26.824Z,9.70
2018-10-12T02:39:55.694Z,9.60
2018-10-12T02:42:24.526Z,9.60
2018-10-12T02:44:53.458Z,9.50
2018-10-12T02:47:22.230Z,9.50
2018-10-12T02:49:51.135Z,9.50
2018-10-12T02:52:19.891Z,9.50
2018-10-12T02:54:48.692Z,9.50
2018-10-12T02:57:17.571Z,9.50
2018-10-12T02:59:46.391Z,9.60
2018-10-12T03:02:15.204Z,9.60
2018-10-12T03:04:44.043Z,9.50
2018-10-12T03:07:12.863Z,9.40
2018-10-12T03:09:41.722Z,9.30
2018-10-12T03:12:10.523Z,9.30
2018-10-12T03:14:39.312Z,9.20
2018-10-12T03:17:08.157Z,9.20
2018-10-12T03:19:37.348Z,9.20
2018-10-12T03:22:06.335Z,9.20
2018-10-12T03:24:35.152Z,9.10
2018-10-12T03:27:03.940Z,9.10
2018-10-12T03:29:32.897Z,9.10
2018-10-12T03:32:02.307Z,9.00
2018-10-12T03:34:31.524Z,9.00
2018-10-12T03:37:00.435Z,9.00
2018-10-12T03:39:29.427Z,9.00
2018-10-12T03:41:58.371Z,9.00
2018-10-12T03:44:27.213Z,9.00
2018-10-12T03:46:56.088Z,8.90
2018-10-12T03:49:24.927Z,9.00
2018-10-12T03:51:53.839Z,8.90
2018-10-12T03:54:22.704Z,9.00
2018-10-12T03:56:51.615Z,9.00
2018-10-12T03:59:20.402Z,9.00
2018-10-12T04:01:49.225Z,9.10
2018-10-12T04:04:17.985Z,9.20
2018-10-12T04:06:46.864Z,9.30
2018-10-12T04:09:15.699Z,9.40
2018-10-12T04:11:44.686Z,9.50
2018-10-12T04:14:13.470Z,9.50
2018-10-12T04:16:42.317Z,9.50
2018-10-12T04:19:11.139Z,9.50
2018-10-12T04:21:40.053Z,9.50
2018-10-12T04:24:08.894Z,9.40
2018-10-12T04:26:37.734Z,9.40
2018-10-12T04:29:06.601Z,9.50
2018-10-12T04:31:35.439Z,9.50
2018-10-12T04:34:04.346Z,9.70
2018-10-12T04:36:33.167Z,9.80
2018-10-12T04:40:10.721Z,9.90
2018-10-12T04:42:39.579Z,9.80
2018-10-12T04:45:08.488Z,9.70
2018-10-12T04:47:37.507Z,9.60
2018-10-12T04:50:06.462Z,9.50
2018-10-12T04:52:35.409Z,9.40
2018-10-12T04:55:04.404Z,9.40
2018-10-12T04:57:33.248Z,9.30
2018-10-12T05:00:02.163Z,9.30
2018-10-12T05:02:30.996Z,9.30
2018-10-12T05:04:59.887Z,9.30
2018-10-12T05:07:28.752Z,9.20
2018-10-12T05:09:57.583Z,9.10
2018-10-12T05:12:32.656Z,9.10
2018-10-12T05:15:01.551Z,9.10
2018-10-12T05:17:30.444Z,9.10
2018-10-12T05:19:59.271Z,9.00
2018-10-12T05:22:28.134Z,8.80
2018-10-12T05:24:59.652Z,8.80
2018-10-12T05:27:28.488Z,8.80
2018-10-12T05:29:57.765Z,8.80
2018-10-12T05:32:26.528Z,8.80
2018-10-12T05:34:55.409Z,8.80
2018-10-12T05:37:24.201Z,8.80
2018-10-12T05:39:53.122Z,8.90
2018-10-12T05:42:21.945Z,8.90
2018-10-12T05:44:50.828Z,9.00
2018-10-12T05:47:19.705Z,9.20
2018-10-12T05:50:01.388Z,9.40
2018-10-12T05:52:30.819Z,9.50
2018-10-12T05:55:00.659Z,9.60
2018-10-12T05:57:30.852Z,9.60
2018-10-12T05:59:59.761Z,9.70
2018-10-12T06:02:31.718Z,9.70
2018-10-12T06:05:00.844Z,9.70
2018-10-12T06:07:30.019Z,9.80
2018-10-12T06:09:58.870Z,9.80
2018-10-12T06:12:27.742Z,9.90
2018-10-12T06:14:56.633Z,10.00
2018-10-12T06:17:25.615Z,10.10
2018-10-12T06:19:54.474Z,10.10
2018-10-12T06:22:23.281Z,10.20
2018-10-12T06:24:52.225Z,10.30
2018-10-12T06:27:21.183Z,10.30
2018-10-12T06:29:50.064Z,10.50
2018-10-12T06:32:18.897Z,10.70
2018-10-12T06:34:47.750Z,10.80
2018-10-12T06:37:16.610Z,10.90
2018-10-12T06:39:45.501Z,11.00
2018-10-12T06:42:14.410Z,11.10
2018-10-12T06:44:43.238Z,11.20
2018-10-12T06:47:12.060Z,11.40
2018-10-12T06:49:40.892Z,11.40
2018-10-12T06:52:10.165Z,11.60
2018-10-12T06:54:38.991Z,11.70
2018-10-12T06:57:07.852Z,11.80
2018-10-12T06:59:36.803Z,11.90
2018-10-12T07:02:05.774Z,12.00
2018-10-12T07:04:34.762Z,12.10
2018-10-12T07:07:03.696Z,12.30
2018-10-12T07:09:32.616Z,12.40
2018-10-12T07:12:01.384Z,12.50
2018-10-12T07:14:30.140Z,12.60
2018-10-12T07:16:58.931Z,12.80
2018-10-12T07:19:27.843Z,12.90
2018-10-12T07:21:56.783Z,13.10
2018-10-12T07:24:25.600Z,13.20
2018-10-12T07:26:54.388Z,13.30
2018-10-12T07:29:23.177Z,13.50
2018-10-12T07:31:52.055Z,13.70
2018-10-12T07:34:21.060Z,13.90
2018-10-12T07:36:49.950Z,14.10
2018-10-12T07:39:18.774Z,14.40
2018-10-12T07:41:47.698Z,14.60
2018-10-12T07:44:16.519Z,14.80
2018-10-12T07:49:15.011Z,15.00
2018-10-12T07:51:43.876Z,15.80
2018-10-12T07:54:13.787Z,16.30
2018-10-12T07:56:42.626Z,16.90
2018-10-12T07:59:11.464Z,17.60
2018-10-12T08:01:40.288Z,18.20
2018-10-12T08:04:09.114Z,18.80
2018-10-12T08:06:38.052Z,19.20
2018-10-12T08:09:08.228Z,19.50
2018-10-12T08:11:37.408Z,20.10
2018-10-12T08:14:06.513Z,20.90
2018-10-12T08:16:35.412Z,21.40
2018-10-12T08:19:05.719Z,21.90
2018-10-12T08:21:34.713Z,22.40
2018-10-12T08:24:03.874Z,22.80
2018-10-12T08:26:34.593Z,23.20
2018-10-12T08:29:03.487Z,23.20
2018-10-12T08:31:32.526Z,23.20
2018-10-12T08:34:01.425Z,22.90
2018-10-12T08:36:30.893Z,23.00
2018-10-12T08:38:59.970Z,23.10
2018-10-12T08:41:28.966Z,23.40
2018-10-12T08:43:57.855Z,23.80
2018-10-12T08:46:27.153Z,24.10
2018-10-12T08:48:56.049Z,24.60
2018-10-12T08:51:28.280Z,24.90
2018-10-12T08:53:57.308Z,25.00
2018-10-12T08:56:27.101Z,25.50
2018-10-12T08:58:56.071Z,25.90
2018-10-12T09:01:24.947Z,25.90
2018-10-12T09:03:53.911Z,26.10
2018-10-12T09:06:22.926Z,26.00
2018-10-12T09:08:51.882Z,26.50
2018-10-12T09:11:20.847Z,26.80
2018-10-12T09:13:49.872Z,27.20
2018-10-12T09:16:19.240Z,27.60
2018-10-12T09:18:48.099Z,28.00
2018-10-12T09:21:17.900Z,28.50
2018-10-12T09:23:46.841Z,29.00
2018-10-12T09:26:15.829Z,27.90
2018-10-12T09:28:44.799Z,27.50
2018-10-12T09:31:13.697Z,27.30
2018-10-12T09:33:43.175Z,27.80
2018-10-12T09:36:12.096Z,27.70
2018-10-12T09:38:41.169Z,27.20
2018-10-12T09:41:10.048Z,26.80
2018-10-12T09:43:38.962Z,27.40
2018-10-12T09:46:07.953Z,28.20
2018-10-12T09:48:36.865Z,28.70
2018-10-12T09:51:05.817Z,28.90
2018-10-12T09:53:34.824Z,29.50
2018-10-12T09:56:03.883Z,29.50
2018-10-12T09:58:32.748Z,28.90
2018-10-12T10:01:06.949Z,28.10
2018-10-12T10:03:41.179Z,27.20
2018-10-12T10:06:10.130Z,26.60
2018-10-12T10:08:39.120Z,25.70
2018-10-12T10:11:07.880Z,25.30
2018-10-12T10:13:36.856Z,24.70
2018-10-12T10:16:05.752Z,24.00
2018-10-12T10:18:34.614Z,23.80
2018-10-12T10:21:03.483Z,23.50
2018-10-12T10:23:32.662Z,23.30
2018-10-12T10:26:01.542Z,23.20
2018-10-12T10:28:30.462Z,23.00
2018-10-12T10:30:59.444Z,22.90
2018-10-12T10:33:28.667Z,22.90
2018-10-12T10:35:57.554Z,22.70
2018-10-12T10:38:26.446Z,22.70
2018-10-12T10:40:55.332Z,22.60
2018-10-12T10:43:24.493Z,22.60
2018-10-12T10:45:53.535Z,22.60
2018-10-12T10:48:22.681Z,22.70
2018-10-12T10:50:51.851Z,22.70
2018-10-12T10:53:20.971Z,22.60
2018-10-12T10:55:50.009Z,22.50
2018-10-12T10:58:18.922Z,22.50
2018-10-12T11:00:47.844Z,22.50
2018-10-12T11:03:16.715Z,22.40
2018-10-12T11:05:45.591Z,22.30
2018-10-12T11:08:14.516Z,22.50
2018-10-12T11:10:43.382Z,22.50
2018-10-12T11:13:12.301Z,22.90
2018-10-12T11:15:41.427Z,23.40
2018-10-12T11:18:10.389Z,23.90
2018-10-12T11:20:39.290Z,24.80
2018-10-12T11:23:08.227Z,25.40
2018-10-12T11:25:37.216Z,25.70
2018-10-12T11:28:06.199Z,26.10
2018-10-12T11:30:35.169Z,26.60
2018-10-12T11:33:04.099Z,27.40
2018-10-12T11:35:33.018Z,27.90
2018-10-12T11:38:01.961Z,27.20
2018-10-12T11:40:30.843Z,27.10
2018-10-12T11:43:10.824Z,27.50
2018-10-12T11:45:39.855Z,27.70
2018-10-12T11:48:08.853Z,28.30
2018-10-12T11:50:37.768Z,28.70
2018-10-12T11:53:06.652Z,28.80
2018-10-12T11:55:35.590Z,29.20
2018-10-12T11:58:04.507Z,28.90
2018-10-12T12:00:33.387Z,29.50
2018-10-12T12:03:02.514Z,29.50
2018-10-12T12:05:31.393Z,30.40
2018-10-12T12:08:00.282Z,30.40
2018-10-12T12:10:29.272Z,29.60
2018-10-12T12:12:58.336Z,30.00
2018-10-12T12:15:27.298Z,29.90
2018-10-12T12:17:56.449Z,29.80
2018-10-12T12:20:25.405Z,30.20
2018-10-12T12:22:54.300Z,31.00
2018-10-12T12:25:23.311Z,32.00
2018-10-12T12:27:52.553Z,32.70
2018-10-12T12:30:21.776Z,33.00
2018-10-12T12:32:50.662Z,32.70
2018-10-12T12:35:19.887Z,32.20
2018-10-12T12:37:48.626Z,32.30
2018-10-12T12:40:17.536Z,33.00
2018-10-12T12:42:46.482Z,32.80
2018-10-12T12:45:15.430Z,32.40
2018-10-12T12:47:44.589Z,31.80
2018-10-12T12:50:13.371Z,31.10
2018-10-12T12:52:42.286Z,31.60
2018-10-12T12:55:11.199Z,32.40
2018-10-12T12:57:40.126Z,32.90
2018-10-12T13:00:09.160Z,33.70
2018-10-12T13:02:38.085Z,33.30
2018-10-12T13:05:07.085Z,32.80
2018-10-12T13:07:36.041Z,31.80
2018-10-12T13:10:05.015Z,31.60
2018-10-12T13:12:33.930Z,32.30
2018-10-12T13:15:02.743Z,32.20
2018-10-12T13:17:31.717Z,32.20
2018-10-12T13:20:00.571Z,32.60
2018-10-12T13:22:29.482Z,32.50
2018-10-12T13:24:58.399Z,31.90
2018-10-12T13:27:27.284Z,31.40
2018-10-12T13:29:56.245Z,31.40
2018-10-12T13:32:25.162Z,31.40
2018-10-12T13:34:54.027Z,31.00
2018-10-12T13:37:22.958Z,31.00
2018-10-12T13:39:52.045Z,30.70
2018-10-12T13:42:20.842Z,30.30
2018-10-12T13:44:49.918Z,29.80
2018-10-12T13:47:18.884Z,29.50
2018-10-12T13:49:47.873Z,29.50
2018-10-12T13:52:16.756Z,29.40
2018-10-12T13:54:45.835Z,29.30
2018-10-12T13:57:14.776Z,29.60
2018-10-12T13:59:43.667Z,30.20
2018-10-12T14:02:12.571Z,30.20
2018-10-12T14:04:41.486Z,29.90
2018-10-12T14:07:10.771Z,30.30
2018-10-12T14:09:39.734Z,30.50
2018-10-12T14:12:09.149Z,30.50
2018-10-12T14:14:38.110Z,30.40
2018-10-12T14:17:07.039Z,30.10
2018-10-12T14:19:35.912Z,29.30
2018-10-12T14:22:04.837Z,28.10
2018-10-12T14:24:33.926Z,26.70
2018-10-12T14:27:02.948Z,25.50
2018-10-12T14:29:32.202Z,24.80
2018-10-12T14:32:02.605Z,24.10
2018-10-12T14:34:31.496Z,23.70
2018-10-12T14:37:00.454Z,23.30
2018-10-12T14:39:39.064Z,23.10
2018-10-12T14:42:08.146Z,23.00
2018-10-12T14:44:37.114Z,22.80
2018-10-12T14:47:06.068Z,22.60
2018-10-12T14:49:35.158Z,22.50
2018-10-12T14:52:04.026Z,22.30
2018-10-12T14:54:33.049Z,22.30
2018-10-12T14:57:01.977Z,22.00
2018-10-12T14:59:30.814Z,21.90
2018-10-12T15:02:00.089Z,21.90
2018-10-12T15:04:29.107Z,21.80
2018-10-12T15:06:58.026Z,21.70
2018-10-12T15:09:26.968Z,21.70
2018-10-12T15:11:55.881Z,21.50
2018-10-12T15:14:35.696Z,21.40
2018-10-12T15:17:04.706Z,21.30
2018-10-12T15:19:33.707Z,21.30
2018-10-12T15:22:02.747Z,21.20
2018-10-12T15:24:31.584Z,21.10
2018-10-12T15:27:00.673Z,20.90
2018-10-12T15:29:30.168Z,20.80
2018-10-12T15:31:59.027Z,20.70
2018-10-12T15:34:28.418Z,20.60
2018-10-12T15:36:57.368Z,20.50
2018-10-12T15:39:26.270Z,20.30
2018-10-12T15:41:55.206Z,20.20
2018-10-12T15:44:24.482Z,20.10
2018-10-12T15:46:53.329Z,20.10
2018-10-12T15:49:22.191Z,20.00
2018-10-12T15:51:51.125Z,19.90
2018-10-12T15:54:20.113Z,19.90
2018-10-12T15:56:48.990Z,19.90
2018-10-12T15:59:17.848Z,19.90
2018-10-12T16:01:46.699Z,19.90
2018-10-12T16:04:15.622Z,19.80
2018-10-12T16:06:44.543Z,19.80
2018-10-12T16:09:13.493Z,19.70
2018-10-12T16:11:42.575Z,19.70
2018-10-12T16:14:11.617Z,19.70
2018-10-12T16:16:40.659Z,19.60
2018-10-12T16:19:09.539Z,19.50
2018-10-12T16:21:38.464Z,19.30
2018-10-12T16:24:10.926Z,19.20
2018-10-12T16:26:40.123Z,19.10
2018-10-12T16:29:09.244Z,18.90
2018-10-12T16:31:38.424Z,18.80
2018-10-12T16:34:07.923Z,18.60
2018-10-12T16:36:37.059Z,18.40
2018-10-12T16:39:08.289Z,18.30
2018-10-12T16:41:37.819Z,18.10
2018-10-12T16:44:07.147Z,17.90
2018-10-12T16:46:36.159Z,17.70
2018-10-12T16:49:05.182Z,17.50
2018-10-12T16:51:34.722Z,17.30
2018-10-12T16:54:03.663Z,17.20
2018-10-12T16:56:32.582Z,17.10
2018-10-12T16:59:01.499Z,16.90
2018-10-12T17:01:31.778Z,16.80
2018-10-12T17:04:00.700Z,16.70
2018-10-12T17:06:29.582Z,16.60
2018-10-12T17:08:58.931Z,16.50
2018-10-12T17:11:28.432Z,16.30
2018-10-12T17:13:57.389Z,16.20
2018-10-12T17:16:26.469Z,16.00
2018-10-12T17:18:55.640Z,15.90
2018-10-12T17:21:24.596Z,15.80
2018-10-12T17:23:53.521Z,15.80
2018-10-12T17:26:22.547Z,15.70
2018-10-12T17:28:51.468Z,15.70
2018-10-12T17:31:20.541Z,15.60
2018-10-12T17:33:49.387Z,15.50
2018-10-12T17:36:18.324Z,15.50
2018-10-12T17:38:47.343Z,15.40
2018-10-12T17:41:18.743Z,15.20
2018-10-12T17:43:48.366Z,15.00
2018-10-12T17:46:17.410Z,14.90
2018-10-12T17:48:46.282Z,14.70
2018-10-12T17:51:15.177Z,14.70
2018-10-12T17:53:44.146Z,14.60
2018-10-12T17:56:13.067Z,14.60
2018-10-12T17:58:41.939Z,14.60
2018-10-12T18:01:10.839Z,14.60
2018-10-12T18:03:39.836Z,14.50
2018-10-12T18:06:08.981Z,14.50
2018-10-12T18:08:38.185Z,14.40
2018-10-12T18:11:07.175Z,14.30
2018-10-12T18:13:36.034Z,14.20
2018-10-12T18:16:05.334Z,14.20
2018-10-12T18:18:34.288Z,14.10
2018-10-12T18:21:03.170Z,14.10
2018-10-12T18:23:32.188Z,14.10
2018-10-12T18:26:01.333Z,14.00
2018-10-12T18:28:30.161Z,13.90
2018-10-12T18:31:01.690Z,13.70
2018-10-12T18:33:30.659Z,13.50
2018-10-12T18:36:00.199Z,13.40
2018-10-12T18:38:29.871Z,13.30
2018-10-12T18:40:58.840Z,13.20
2018-10-12T18:43:27.912Z,13.10
2018-10-12T18:45:56.965Z,13.10
2018-10-12T18:48:25.869Z,13.00
2018-10-12T18:50:54.901Z,12.90
2018-10-12T18:53:23.926Z,12.90
2018-10-12T18:55:52.794Z,12.80
2018-10-12T18:58:21.803Z,12.70
2018-10-12T19:00:50.748Z,12.70
2018-10-12T19:03:19.652Z,12.80
2018-10-12T19:05:49.723Z,12.80
2018-10-12T19:08:19.521Z,12.80
2018-10-12T19:10:48.401Z,12.70
2018-10-12T19:13:17.471Z,12.60
2018-10-12T19:15:46.760Z,12.50
2018-10-12T19:18:15.632Z,12.40
2018-10-12T19:20:44.591Z,12.40
2018-10-12T19:23:13.460Z,12.30
2018-10-12T19:25:42.361Z,12.40
2018-10-12T19:28:11.445Z,12.30
2018-10-12T19:30:42.278Z,12.20
2018-10-12T19:33:12.946Z,12.20
2018-10-12T19:35:43.130Z,12.10
2018-10-12T19:38:12.129Z,12.00
2018-10-12T19:40:41.639Z,11.90
2018-10-12T19:43:11.438Z,11.80
2018-10-12T19:45:40.804Z,11.80
2018-10-12T19:48:11.214Z,11.70
2018-10-12T19:50:42.068Z,11.70
2018-10-12T19:53:11.003Z,11.70
2018-10-12T19:55:39.927Z,11.60
2018-10-12T19:58:08.896Z,11.60
2018-10-12T20:00:37.944Z,11.60
2018-10-12T20:03:07.243Z,11.50
2018-10-12T20:05:36.146Z,11.40
2018-10-12T20:08:05.195Z,11.40
2018-10-12T20:10:34.223Z,11.40
2018-10-12T20:13:03.260Z,11.40
2018-10-12T20:15:33.172Z,11.30
2018-10-12T20:18:02.181Z,11.30
2018-10-12T20:20:31.128Z,11.30
2018-10-12T20:23:00.024Z,11.30
2018-10-12T20:25:29.042Z,11.40
2018-10-12T20:27:58.045Z,11.50
2018-10-12T20:30:27.315Z,11.50
2018-10-12T20:32:56.261Z,11.50
2018-10-12T20:35:25.547Z,11.50
2018-10-12T20:37:54.615Z,11.50
2018-10-12T20:40:23.612Z,11.40
2018-10-12T20:42:52.510Z,11.30
2018-10-12T20:45:22.190Z,11.20
2018-10-12T20:47:51.302Z,11.10
2018-10-12T20:50:20.295Z,11.10
2018-10-12T20:52:49.829Z,11.20
2018-10-12T20:55:19.832Z,11.20
2018-10-12T20:57:49.888Z,11.10
2018-10-12T21:00:19.722Z,11.00
2018-10-12T21:02:48.632Z,10.90
2018-10-12T21:05:17.682Z,10.80
2018-10-12T21:07:46.658Z,10.70
2018-10-12T21:10:15.908Z,10.60
2018-10-12T21:12:44.856Z,10.60
2018-10-12T21:15:13.817Z,10.50
2018-10-12T21:17:43.039Z,10.50
2018-10-12T21:20:11.996Z,10.50
2018-10-12T21:22:40.979Z,10.40
2018-10-12T21:25:10.090Z,10.40
2018-10-12T21:27:39.017Z,10.30
2018-10-12T21:30:08.243Z,10.30
2018-10-12T21:32:38.009Z,10.30
2018-10-12T21:35:07.204Z,10.30
2018-10-12T21:37:36.266Z,10.30
2018-10-12T21:40:05.294Z,10.30
2018-10-12T21:42:34.469Z,10.30
2018-10-12T21:45:03.488Z,10.30
2018-10-12T21:47:32.595Z,10.30
2018-10-12T21:50:01.608Z,10.30
2018-10-12T21:52:30.680Z,10.20
2018-10-12T21:54:59.663Z,10.30
2018-10-12T21:57:28.834Z,10.40
2018-10-12T21:59:57.974Z,10.40
2018-10-12T22:02:27.648Z,10.40
2018-10-12T22:04:56.842Z,10.40
2018-10-12T22:07:26.019Z,10.40
2018-10-12T22:09:55.261Z,10.20
2018-10-12T22:12:24.477Z,10.20
2018-10-12T22:14:53.899Z,10.10
2018-10-12T22:17:23.008Z,10.00
2018-10-12T22:19:52.332Z,10.00
2018-10-12T22:22:21.449Z,9.90
2018-10-12T22:24:50.748Z,9.80
2018-10-12T22:27:19.895Z,9.90
2018-10-12T22:29:48.911Z,9.80
2018-10-12T22:32:18.088Z,9.70
2018-10-12T22:34:47.088Z,9.70
2018-10-12T22:37:16.121Z,9.60
2018-10-12T22:39:45.048Z,9.60
2018-10-12T22:42:14.951Z,9.50
2018-10-12T22:44:44.388Z,9.50
2018-10-12T22:47:13.556Z,9.40
2018-10-12T22:49:42.528Z,9.40
2018-10-12T22:52:11.418Z,9.30
2018-10-12T22:54:40.471Z,9.30
2018-10-12T22:57:09.418Z,9.20
2018-10-12T22:59:38.364Z,9.20
2018-10-12T23:02:07.427Z,9.10
2018-10-12T23:04:36.361Z,9.10
2018-10-12T23:07:05.330Z,9.00
2018-10-12T23:09:34.286Z,9.00
2018-10-12T23:12:03.217Z,9.10
2018-10-12T23:14:32.128Z,9.00
2018-10-12T23:17:01.058Z,8.90
2018-10-12T23:19:29.974Z,8.90
2018-10-12T23:21:58.801Z,8.90
2018-10-12T23:24:27.730Z,9.00
2018-10-12T23:26:56.982Z,9.10
2018-10-12T23:29:25.790Z,9.20
2018-10-12T23:31:54.608Z,9.10
2018-10-12T23:34:23.479Z,9.10
2018-10-12T23:36:52.357Z,9.10
2018-10-12T23:39:21.274Z,9.10
2018-10-12T23:41:50.145Z,9.00
2018-10-12T23:44:18.999Z,9.00
2018-10-12T23:46:47.930Z,8.90
2018-10-12T23:49:17.063Z,8.90
2018-10-12T23:51:45.987Z,8.90
2018-10-12T23:54:15.084Z,9.00
2018-10-12T23:56:44.013Z,9.00
2018-10-12T23:59:12.908Z,9.00
